ADDS METAR Data INFO
IDs: Format: Raw Decoded Include TAF

Data at: 0451 UTC 21 Feb 2018

KLAL 201445Z 13011KT 10SM BKN019 25/20 A3035
KLAL 201350Z 11011KT 10SM FEW010 SCT100 23/20 A3034
KLAL 201250Z 10005KT 10SM SKC 22/20 A3032
KLAL 201150Z 11006KT 10SM SKC 19/19 A3030
KLAL 201050Z 09006KT 10SM SKC 19/19 A3029
KLAL 200950Z 09008KT 10SM SKC 20/19 A3027
KLAL 200850Z 08008KT 10SM SKC 21/20 A3027
KLAL 200750Z 09008KT 10SM SKC 21/20 A3028
KLAL 200715Z AUTO 11008KT 10SM CLR 21/20 A3028 RMK AO2
KLAL 200650Z 11008KT 10SM SKC 21/20 A3029
KLAL 200615Z AUTO 11008KT 10SM CLR 21/20 A3029 RMK AO2
KLAL 200550Z 10006KT 10SM SKC 21/20 A3029
KLAL 200450Z 11006KT 10SM SKC 22/20 A3029
KLAL 200356Z 10007KT 10SM SKC 22/19 A3029
KLAL 200315Z AUTO 10007KT 10SM CLR 22/18 A3029 RMK AO2
KLAL 200256Z 10007KT 10SM SKC 22/18 A3029
KLAL 200235Z AUTO 10005KT 10SM CLR 22/18 A3029 RMK AO2
KLAL 200215Z AUTO 10007KT 10SM CLR 22/17 A3029 RMK AO2
KLAL 200152Z 11009KT 10SM SKC 23/18 A3028
KLAL 200050Z 11008KT 10SM BKN043 24/18 A3026
KLAL 192350Z 10010KT 10SM SCT050 25/18 A3025
KLAL 192154Z 10008KT 10SM BKN060 27/17 A3024
KLAL 192057Z 10012KT 10SM BKN060 27/16 A3023
KLAL 191957Z 12011KT 10SM BKN060 28/15 A3023
KLAL 191850Z 09006KT 10SM BKN050 29/16 A3025
KLAL 191748Z 14014KT 10SM SCT046 18/16 A3029